Time;durP1;ratioP1;P1;durP2;ratioP2;P2;SDS_P1;SDS_P2;PMS_P1;PMS_P2;Temp;Humidity;BMP_temperature;BMP_pressure;BME280_temperature;BME280_humidity;BME280_pressure;Samples;Min_cycle;Max_cycle;Signal;HPM_P1;HPM_P2
2020/12/23 00:00:32;;;;;;;1.40;1.00;;;12.90;99.90;;;13.34;100.00;98087.03;4995147;28;20467;-82
2020/12/23 00:03:06;;;;;;;1.80;0.90;;;12.90;99.90;;;13.36;100.00;98095.50;5006970;28;20485;-82
2020/12/23 00:05:34;;;;;;;0.90;0.80;;;12.80;99.90;;;13.37;100.00;98089.22;5003212;28;20521;-81
2020/12/23 00:08:02;;;;;;;0.97;0.87;;;12.90;99.90;;;13.38;100.00;98090.84;4995907;28;20724;-81
2020/12/23 00:10:30;;;;;;;0.97;0.87;;;12.90;99.90;;;13.37;100.00;98088.44;4996483;28;20475;-81
2020/12/23 00:12:58;;;;;;;2.50;1.07;;;12.90;99.90;;;13.34;100.00;98086.22;4997561;28;20477;-81
2020/12/23 00:15:26;;;;;;;1.30;1.00;;;12.90;99.90;;;13.37;100.00;98094.50;4995197;28;20491;-82
2020/12/23 00:17:53;;;;;;;1.40;1.10;;;12.90;99.90;;;13.38;100.00;98082.97;4994308;28;20514;-81
2020/12/23 00:20:21;;;;;;;1.33;1.13;;;12.90;99.90;;;13.37;100.00;98101.56;4994878;28;20464;-81
2020/12/23 00:22:48;;;;;;;2.10;1.10;;;12.90;99.90;;;13.38;100.00;98092.66;4996267;28;20476;-82
2020/12/23 00:25:16;;;;;;;2.27;1.10;;;12.90;99.90;;;13.37;100.00;98086.59;4996361;28;20459;-81
2020/12/23 00:27:44;;;;;;;2.23;1.40;;;12.90;99.90;;;13.37;100.00;98091.88;4994515;28;20500;-82
2020/12/23 00:30:12;;;;;;;2.50;1.30;;;13.00;99.90;;;13.36;100.00;98090.25;4996324;28;20459;-82
2020/12/23 00:32:40;;;;;;;1.47;1.03;;;13.00;99.90;;;13.37;100.00;98096.31;4996315;28;20553;-81
2020/12/23 00:35:07;;;;;;;1.77;1.20;;;12.90;99.90;;;13.38;100.00;98100.56;4995834;28;20828;-82
2020/12/23 00:37:35;;;;;;;1.30;1.10;;;12.90;99.90;;;13.37;100.00;98097.13;4995556;28;21007;-81
2020/12/23 00:40:04;;;;;;;1.10;1.00;;;12.90;99.90;;;13.38;100.00;98103.19;4996677;28;20603;-81
2020/12/23 00:42:31;;;;;;;2.30;1.00;;;12.90;99.90;;;13.37;100.00;98112.88;4995125;28;20475;-81
2020/12/23 00:44:59;;;;;;;1.53;1.20;;;12.90;99.90;;;13.35;100.00;98109.66;4993721;28;20470;-81
2020/12/23 00:47:27;;;;;;;1.47;1.00;;;12.80;99.90;;;13.34;100.00;98117.72;4994996;28;20475;-82
2020/12/23 00:49:54;;;;;;;5.03;2.50;;;12.80;99.90;;;13.35;100.00;98120.16;4992746;28;20473;-82
2020/12/23 00:52:22;;;;;;;4.50;1.90;;;12.90;99.90;;;13.35;100.00;98130.66;4995542;28;20466;-81
2020/12/23 00:54:50;;;;;;;3.90;1.90;;;12.90;99.90;;;13.29;100.00;98142.00;4996344;28;21074;-82
2020/12/23 00:57:17;;;;;;;3.03;1.30;;;12.80;99.90;;;13.32;100.00;98133.69;4994355;28;20533;-81
2020/12/23 00:59:45;;;;;;;1.40;0.90;;;12.90;99.90;;;13.27;100.00;98128.22;4995693;28;21026;-82
2020/12/23 01:02:13;;;;;;;1.90;1.20;;;12.80;99.90;;;13.24;100.00;98133.09;4994045;28;20841;-81
2020/12/23 01:04:41;;;;;;;1.83;0.90;;;12.80;99.90;;;13.22;100.00;98124.59;4994984;28;20463;-81
2020/12/23 01:07:08;;;;;;;3.03;0.80;;;12.80;99.90;;;13.18;100.00;98124.19;4995648;28;20532;-81
2020/12/23 01:09:36;;;;;;;3.03;0.87;;;12.80;99.90;;;13.08;100.00;98114.03;4995796;28;20486;-81
2020/12/23 01:12:03;;;;;;;0.90;0.70;;;12.60;99.90;;;13.04;100.00;98122.53;4994941;28;20471;-82
2020/12/23 01:14:30;;;;;;;4.20;1.13;;;12.60;99.90;;;12.99;100.00;98106.56;4994895;28;20474;-82
2020/12/23 01:16:58;;;;;;;0.80;0.70;;;12.60;99.90;;;12.98;100.00;98110.22;4993999;28;20917;-81
2020/12/23 01:19:26;;;;;;;2.07;1.00;;;12.50;99.90;;;12.97;100.00;98108.59;4996892;28;20490;-82
2020/12/23 01:21:54;;;;;;;2.10;0.73;;;12.50;99.90;;;12.92;100.00;98113.63;4993933;28;20495;-81
2020/12/23 01:24:21;;;;;;;1.73;0.90;;;12.50;99.90;;;12.87;100.00;98124.75;4996003;28;20521;-82
2020/12/23 01:26:49;;;;;;;1.37;0.83;;;12.30;99.90;;;12.86;100.00;98124.94;4995343;28;20621;-82
2020/12/23 01:29:17;;;;;;;5.13;1.10;;;12.30;99.90;;;12.81;100.00;98122.09;4994576;28;20597;-81
2020/12/23 01:31:44;;;;;;;1.53;1.00;;;12.20;99.90;;;12.82;100.00;98128.97;4995448;28;20516;-82
2020/12/23 01:34:12;;;;;;;7.73;0.80;;;12.30;99.90;;;12.81;100.00;98122.09;4993983;28;20455;-81
2020/12/23 01:36:40;;;;;;;2.30;0.90;;;12.20;99.90;;;12.76;100.00;98129.75;4993954;28;20489;-81
2020/12/23 01:39:08;;;;;;;1.53;0.87;;;12.20;99.90;;;12.69;100.00;98126.31;4993245;28;20491;-81
2020/12/23 01:41:35;;;;;;;3.10;1.00;;;12.20;99.90;;;12.70;100.00;98127.94;4994600;28;20467;-81
2020/12/23 01:44:05;;;;;;;1.00;0.80;;;12.20;99.90;;;12.65;100.00;98125.09;4996392;28;20447;-82
2020/12/23 01:46:35;;;;;;;2.83;0.80;;;12.20;99.90;;;12.60;100.00;98126.47;4993419;28;20963;-82
2020/12/23 01:49:07;;;;;;;1.03;0.80;;;12.20;99.90;;;12.57;100.00;98115.56;4994486;28;20474;-82
2020/12/23 01:51:36;;;;;;;2.50;0.97;;;12.10;99.90;;;12.53;100.00;98130.91;4994036;28;20462;-82
2020/12/23 01:54:04;;;;;;;3.30;1.10;;;12.00;99.90;;;12.54;100.00;98127.28;4995672;28;20464;-81
2020/12/23 01:56:35;;;;;;;3.23;0.73;;;12.00;99.90;;;12.53;100.00;98130.91;4994407;28;20560;-82
2020/12/23 01:59:03;;;;;;;4.23;1.07;;;12.00;99.90;;;12.52;100.00;98118.81;4995244;28;20464;-81
2020/12/23 02:01:37;;;;;;;2.33;1.00;;;12.00;99.90;;;12.50;100.00;98110.31;4993723;28;20473;-81
2020/12/23 02:04:20;;;;;;;1.90;0.90;;;11.90;99.90;;;12.48;100.00;98122.00;4994883;28;20468;-81
2020/12/23 02:06:48;;;;;;;1.57;0.80;;;11.80;99.90;;;12.44;100.00;98131.28;4993259;28;20464;-81
2020/12/23 02:09:19;;;;;;;6.33;1.20;;;11.80;99.90;;;12.43;100.00;98125.22;4995810;28;20475;-81
2020/12/23 02:11:47;;;;;;;2.60;0.90;;;11.80;99.90;;;12.41;100.00;98108.06;4995758;28;20474;-82
2020/12/23 02:14:15;;;;;;;1.57;0.80;;;11.80;99.90;;;12.45;100.00;98104.06;4994620;28;21005;-81
2020/12/23 02:16:42;;;;;;;4.70;1.10;;;11.80;99.90;;;12.37;100.00;98096.34;4994965;28;20902;-82
2020/12/23 02:19:10;;;;;;;5.90;1.00;;;11.70;99.90;;;12.31;100.00;98102.38;4994584;28;20474;-81
2020/12/23 02:21:38;;;;;;;2.53;0.90;;;11.60;99.90;;;12.34;100.00;98104.63;4995398;28;20467;-81
2020/12/23 02:24:06;;;;;;;2.50;0.97;;;11.60;99.90;;;12.30;100.00;98092.91;4995485;28;20478;-81
2020/12/23 02:26:34;;;;;;;2.77;0.90;;;11.50;99.90;;;12.33;100.00;98092.50;4992748;28;21028;-81
2020/12/23 02:29:01;;;;;;;6.73;1.30;;;11.50;99.90;;;12.28;100.00;98095.72;4992820;28;20499;-82
2020/12/23 02:31:28;;;;;;;3.67;1.03;;;11.50;99.90;;;12.26;100.00;98092.47;4992594;28;20541;-81
2020/12/23 02:33:56;;;;;;;2.27;1.00;;;11.50;99.90;;;12.27;100.00;98104.59;4997706;28;20452;-82
2020/12/23 02:36:23;;;;;;;3.50;0.97;;;11.50;99.90;;;12.26;100.00;98097.72;4993531;28;20486;-82
2020/12/23 02:38:51;;;;;;;4.40;1.20;;;11.60;99.90;;;12.28;100.00;98085.25;4998595;28;20474;-81
2020/12/23 02:41:19;;;;;;;3.80;1.00;;;11.60;99.90;;;12.28;100.00;98080.00;4998073;28;20467;-81
2020/12/23 02:43:47;;;;;;;3.80;1.23;;;11.60;99.90;;;12.21;100.00;98084.41;4997768;28;20459;-82
2020/12/23 02:46:14;;;;;;;7.40;0.90;;;11.50;99.90;;;12.25;100.00;98087.44;4999124;28;21015;-81
2020/12/23 02:48:42;;;;;;;1.40;0.80;;;11.50;99.90;;;12.26;100.00;98087.22;4998728;28;20455;-81
2020/12/23 02:51:09;;;;;;;9.63;1.43;;;11.50;99.90;;;12.26;100.00;98092.47;4996571;28;20462;-81
2020/12/23 02:53:37;;;;;;;3.17;1.10;;;11.50;99.90;;;12.25;100.00;98100.56;4997458;28;20553;-81
2020/12/23 02:56:06;;;;;;;3.13;0.90;;;11.50;99.90;;;12.24;100.00;98105.00;4999059;28;20526;-81
2020/12/23 02:58:34;;;;;;;0.90;0.77;;;11.50;99.90;;;12.22;100.00;98093.88;4998654;28;20899;-81
2020/12/23 03:01:01;;;;;;;1.10;0.90;;;11.50;99.90;;;12.23;100.00;98092.88;4997935;28;20481;-82
2020/12/23 03:03:29;;;;;;;2.90;0.80;;;11.60;99.90;;;12.23;100.00;98076.34;4999256;28;20930;-81
2020/12/23 03:05:56;;;;;;;2.13;1.10;;;11.50;99.90;;;12.21;100.00;98068.69;4998744;28;20513;-81
2020/12/23 03:08:24;;;;;;;6.40;1.30;;;11.50;99.90;;;12.23;100.00;98057.97;4996509;28;20488;-81
2020/12/23 03:10:51;;;;;;;3.50;0.90;;;11.50;99.90;;;12.11;100.00;98060.38;4998060;28;20522;-81
2020/12/23 03:13:19;;;;;;;2.50;1.10;;;11.30;99.90;;;12.11;100.00;98053.28;4999318;28;20464;-81
2020/12/23 03:15:47;;;;;;;2.50;1.23;;;11.30;99.90;;;12.13;100.00;98050.50;4998207;28;20463;-81
2020/12/23 03:18:14;;;;;;;5.73;1.07;;;11.30;99.90;;;12.13;100.00;98050.50;4996397;28;20991;-81
2020/12/23 03:20:42;;;;;;;1.63;0.73;;;11.40;99.90;;;12.10;100.00;98040.41;4998107;28;20859;-81
2020/12/23 03:23:09;;;;;;;11.27;1.00;;;11.40;99.90;;;12.09;100.00;98036.16;4997860;28;20968;-81
2020/12/23 03:25:37;;;;;;;3.37;0.90;;;11.40;99.90;;;12.08;100.00;98021.44;4997502;28;20468;-81
2020/12/23 03:28:04;;;;;;;2.17;1.20;;;11.30;99.90;;;12.08;100.00;98034.53;4996379;28;20893;-81
2020/12/23 03:30:33;;;;;;;7.13;1.00;;;11.30;99.90;;;12.07;100.00;98043.41;4996206;28;20472;-82
2020/12/23 03:33:01;;;;;;;5.13;1.20;;;11.30;99.90;;;12.07;100.00;98036.38;4998142;28;20451;-81
2020/12/23 03:35:28;;;;;;;2.17;1.17;;;11.30;99.90;;;12.10;100.00;98032.53;4997582;28;20474;-81
2020/12/23 03:37:56;;;;;;;1.77;0.93;;;11.30;99.90;;;12.06;100.00;98033.94;4996605;28;21088;-83
2020/12/23 03:40:23;;;;;;;5.97;1.27;;;11.30;99.90;;;12.05;100.00;98021.81;4999237;28;20468;-81
2020/12/23 03:42:51;;;;;;;2.90;0.97;;;11.30;99.90;;;12.09;100.00;98025.69;4998657;28;20530;-81
2020/12/23 03:45:18;;;;;;;7.60;1.13;;;11.30;99.90;;;12.07;100.00;98025.06;4996749;28;20491;-81
2020/12/23 03:47:46;;;;;;;3.13;1.00;;;11.40;99.90;;;12.06;100.00;98023.44;4994944;28;20960;-82
2020/12/23 03:50:14;;;;;;;2.10;0.70;;;11.50;99.90;;;12.02;100.00;98030.91;4995509;28;20478;-81
2020/12/23 03:52:42;;;;;;;0.90;0.80;;;11.30;99.90;;;12.04;100.00;98022.84;4995491;28;20478;-82
2020/12/23 03:55:09;;;;;;;4.50;1.50;;;11.30;99.90;;;12.02;100.00;98023.03;4998436;28;20462;-81
2020/12/23 03:57:38;;;;;;;9.10;1.00;;;11.30;99.90;;;11.96;100.00;98015.16;4995417;28;20506;-81
2020/12/23 04:00:07;;;;;;;1.10;0.90;;;11.30;99.90;;;11.96;100.00;98010.72;4995346;28;20505;-82
2020/12/23 04:02:35;;;;;;;3.53;0.90;;;11.30;99.90;;;11.97;100.00;97999.25;4993903;28;21073;-81
2020/12/23 04:05:04;;;;;;;2.00;0.83;;;11.30;99.90;;;12.00;100.00;98005.91;4995869;28;20970;-82
2020/12/23 04:07:33;;;;;;;4.50;1.17;;;11.20;99.90;;;11.98;100.00;98008.69;4995444;28;20645;-81
2020/12/23 04:10:00;;;;;;;2.30;0.80;;;11.20;99.90;;;11.96;100.00;98008.09;4996339;28;20499;-82
2020/12/23 04:12:28;;;;;;;6.70;1.13;;;11.20;99.90;;;11.88;100.00;97999.59;4996512;28;20462;-81
2020/12/23 04:14:56;;;;;;;1.87;1.20;;;11.10;99.90;;;11.86;100.00;98006.84;4997097;28;20460;-81
2020/12/23 04:17:23;;;;;;;2.10;1.00;;;11.10;99.90;;;11.91;100.00;98009.69;4996315;28;20495;-81
2020/12/23 04:19:51;;;;;;;8.77;1.00;;;11.10;99.90;;;11.94;100.00;98012.72;4996423;28;20984;-81
2020/12/23 04:22:18;;;;;;;6.23;1.30;;;11.20;99.90;;;11.93;100.00;98010.31;4996167;28;20466;-81
2020/12/23 04:24:47;;;;;;;1.10;0.90;;;11.20;99.90;;;11.90;100.00;98008.91;4996383;28;20498;-81
2020/12/23 04:27:14;;;;;;;13.40;1.10;;;11.20;99.90;;;11.92;100.00;98008.69;4994067;28;20491;-81
2020/12/23 04:29:41;;;;;;;2.60;0.90;;;11.10;99.90;;;11.91;100.00;98007.88;4996921;28;20554;-81
2020/12/23 04:32:12;;;;;;;4.77;1.00;;;11.10;99.90;;;11.89;100.00;98012.50;4996917;28;20470;-81
2020/12/23 04:34:40;;;;;;;1.20;0.93;;;11.10;99.90;;;11.91;100.00;98010.50;4997337;28;20463;-82
2020/12/23 04:37:07;;;;;;;3.20;0.90;;;11.10;99.90;;;11.90;100.00;98010.69;4995766;28;20947;-81
2020/12/23 04:39:35;;;;;;;2.30;1.00;;;11.10;99.90;;;11.85;100.00;98011.28;4997543;28;20456;-81
2020/12/23 04:42:06;;;;;;;1.73;0.80;;;11.00;99.90;;;11.84;100.00;98008.84;4996397;28;20483;-81
2020/12/23 04:44:35;;;;;;;1.47;1.00;;;11.00;99.90;;;11.86;100.00;98002.44;4996258;28;20459;-81
2020/12/23 04:47:05;;;;;;;49.07;26.43;;;11.10;99.90;;;11.90;100.00;98000.22;4995776;28;20506;-84
2020/12/23 04:49:37;;;;;;;16.13;8.50;;;11.20;99.90;;;11.92;100.00;97995.59;4993124;28;20478;-81
2020/12/23 04:52:07;;;;;;;1.60;1.30;;;11.20;99.90;;;11.89;100.00;97995.97;4988994;28;21022;-82
2020/12/23 04:54:35;;;;;;;6.83;1.63;;;11.20;99.90;;;11.91;100.00;97968.56;4995948;28;20968;-82
2020/12/23 04:57:04;;;;;;;2.80;1.10;;;11.30;99.90;;;11.90;100.00;97958.31;4996795;28;20513;-82
2020/12/23 04:59:32;;;;;;;6.97;1.90;;;11.20;99.90;;;11.94;100.00;97967.38;4996327;28;20869;-82
2020/12/23 05:02:01;;;;;;;3.20;2.00;;;11.20;99.90;;;11.94;100.00;97983.88;4996596;28;20458;-83
2020/12/23 05:04:29;;;;;;;19.07;1.40;;;11.20;99.90;;;11.91;100.00;97991.34;4997090;28;20493;-82
2020/12/23 05:07:05;;;;;;;5.50;1.20;;;11.20;99.90;;;11.90;100.00;98008.09;4996159;28;20514;-82
2020/12/23 05:09:34;;;;;;;2.97;1.27;;;11.20;99.90;;;11.87;100.00;98003.25;4996091;28;20490;-82
2020/12/23 05:12:01;;;;;;;3.20;1.10;;;11.10;99.90;;;11.86;100.00;97989.31;4994276;28;20479;-83
2020/12/23 05:14:31;;;;;;;4.70;1.87;;;11.20;99.90;;;11.90;100.00;97987.94;4992626;28;20463;-82
2020/12/23 05:16:59;;;;;;;7.60;1.30;;;11.30;99.90;;;11.92;100.00;97985.91;4993949;28;21391;-82
2020/12/23 05:19:26;;;;;;;1.67;1.07;;;11.30;99.90;;;11.92;100.00;97980.66;4993937;28;20468;-81
2020/12/23 05:21:58;;;;;;;2.97;1.70;;;11.30;99.90;;;11.92;100.00;97978.06;4994538;28;20474;-80
2020/12/23 05:24:27;;;;;;;3.83;2.20;;;11.30;99.90;;;11.94;100.00;97978.66;4993742;28;20464;-81
2020/12/23 05:26:58;;;;;;;6.10;1.77;;;11.30;99.90;;;11.90;100.00;97976.63;4993787;28;20472;-81
2020/12/23 05:29:25;;;;;;;2.90;2.10;;;11.20;99.90;;;11.92;100.00;97977.25;4994280;28;20483;-81
2020/12/23 05:31:55;;;;;;;3.40;1.70;;;11.20;99.90;;;11.93;100.00;97963.94;4993850;28;20460;-81
2020/12/23 05:34:22;;;;;;;2.83;1.80;;;11.30;99.90;;;11.92;100.00;97962.31;4995903;28;20894;-81
2020/12/23 05:36:51;;;;;;;3.97;1.10;;;11.20;99.90;;;11.89;100.00;97960.09;4993594;28;20824;-81
2020/12/23 05:39:19;;;;;;;2.80;1.20;;;11.20;99.90;;;11.90;100.00;97956.50;4995213;28;20540;-81
2020/12/23 05:41:47;;;;;;;1.93;1.50;;;11.20;99.90;;;11.87;100.00;97953.47;4995433;28;20980;-81
2020/12/23 05:44:17;;;;;;;3.80;1.40;;;11.10;99.90;;;11.89;100.00;97952.25;4995173;28;20474;-81
2020/12/23 05:46:47;;;;;;;5.57;1.63;;;11.10;99.90;;;11.89;100.00;97951.44;4995179;28;21044;-81
2020/12/23 05:49:18;;;;;;;2.20;1.43;;;11.10;99.90;;;11.91;100.00;97949.41;4995386;28;20502;-81
2020/12/23 05:51:46;;;;;;;1.73;1.33;;;11.20;99.90;;;11.87;100.00;97950.84;4994832;28;20810;-81
2020/12/23 05:54:14;;;;;;;5.27;1.30;;;11.10;99.90;;;11.81;100.00;97951.59;4996421;28;20463;-81
2020/12/23 05:56:42;;;;;;;1.50;1.20;;;11.10;99.90;;;11.81;100.00;97947.16;4993914;28;20518;-81
2020/12/23 05:59:10;;;;;;;7.83;1.80;;;11.10;99.90;;;11.86;100.00;97955.25;4993227;28;21186;-82
2020/12/23 06:01:39;;;;;;;19.10;1.80;;;11.10;99.90;;;11.88;100.00;97950.63;4993753;28;20522;-81
2020/12/23 06:04:12;;;;;;;2.23;1.40;;;11.10;99.90;;;11.87;100.00;97950.84;4995459;28;20468;-81
2020/12/23 06:07:05;;;;;;;3.90;1.83;;;11.20;99.90;;;11.88;100.00;97941.94;4994366;28;20466;-84
2020/12/23 06:09:39;;;;;;;2.60;1.40;;;11.20;99.90;;;11.90;100.00;97945.19;4997405;28;20478;-81
2020/12/23 06:12:18;;;;;;;3.30;1.70;;;11.10;99.90;;;11.88;100.00;97942.75;4996925;28;20468;-81
2020/12/23 06:14:55;;;;;;;7.03;1.67;;;11.20;99.90;;;11.85;100.00;97947.59;5000079;28;20471;-81
2020/12/23 06:17:38;;;;;;;2.50;1.40;;;11.10;99.90;;;11.86;100.00;97936.09;5000595;28;20483;-82
2020/12/23 06:20:11;;;;;;;6.17;1.70;;;11.10;99.90;;;11.84;100.00;97938.09;5001074;28;20867;-81
2020/12/23 06:22:46;;;;;;;4.40;1.93;;;11.10;99.90;;;11.86;100.00;97926.44;5002151;28;20465;-81
2020/12/23 06:25:17;;;;;;;7.80;1.53;;;11.10;99.90;;;11.86;100.00;97923.00;5001825;28;20961;-81
2020/12/23 06:27:53;;;;;;;3.13;2.00;;;11.20;99.90;;;11.85;100.00;97924.00;4998861;28;20474;-82
2020/12/23 06:30:22;;;;;;;6.00;1.53;;;11.20;99.90;;;11.77;100.00;97919.75;4993226;28;20451;-82
2020/12/23 06:32:50;;;;;;;5.50;1.67;;;11.10;99.90;;;11.81;100.00;97928.84;4997308;28;20467;-82
2020/12/23 06:35:23;;;;;;;8.43;1.90;;;11.10;99.90;;;11.81;100.00;97920.16;4998566;28;20894;-82
2020/12/23 06:37:52;;;;;;;4.13;2.03;;;11.10;99.90;;;11.85;100.00;97924.00;4998044;28;20847;-81
2020/12/23 06:40:20;;;;;;;2.57;1.83;;;11.20;99.90;;;11.86;100.00;97923.00;5001191;28;20849;-82
2020/12/23 06:42:50;;;;;;;4.50;2.03;;;11.10;99.90;;;11.86;100.00;97918.59;4997826;28;20459;-81
2020/12/23 06:45:20;;;;;;;8.10;2.40;;;11.20;99.90;;;11.87;100.00;97922.00;4998955;28;20501;-81
2020/12/23 06:47:48;;;;;;;2.60;1.90;;;11.20;99.90;;;11.86;100.00;97923.00;4997918;28;20486;-81
2020/12/23 06:50:32;;;;;;;11.23;2.20;;;11.10;99.90;;;11.86;100.00;97923.00;4997383;28;20451;-81
2020/12/23 06:53:00;;;;;;;5.63;2.37;;;11.20;99.90;;;11.87;100.00;97920.19;4998184;28;20517;-81
2020/12/23 06:55:47;;;;;;;6.97;2.10;;;11.20;99.90;;;11.85;100.00;97924.81;4998732;28;20493;-81
2020/12/23 06:58:42;;;;;;;5.67;2.60;;;11.10;99.90;;;11.83;100.00;97926.03;4996432;28;20518;-83
2020/12/23 07:01:18;;;;;;;4.47;1.70;;;11.10;99.90;;;11.82;100.00;97921.78;4988065;28;20478;-82
2020/12/23 07:03:47;;;;;;;4.70;1.97;;;11.10;99.90;;;11.85;100.00;97919.56;4995657;28;20470;-81
2020/12/23 07:06:32;;;;;;;3.37;2.10;;;11.10;99.90;;;11.86;100.00;97923.00;4995973;28;20472;-81
2020/12/23 07:09:05;;;;;;;10.70;3.20;;;11.20;99.90;;;11.87;100.00;97914.94;4996889;28;20869;-81
2020/12/23 07:11:38;;;;;;;14.63;5.30;;;11.20;99.90;;;11.87;100.00;97922.00;4995682;28;20470;-81
2020/12/23 07:14:06;;;;;;;6.90;2.07;;;11.10;99.90;;;11.86;100.00;97923.81;4996900;28;20470;-81
2020/12/23 07:16:41;;;;;;;10.33;2.30;;;11.10;99.90;;;11.81;100.00;97907.06;4997349;28;20529;-81
2020/12/23 07:19:10;;;;;;;8.60;2.00;;;11.10;99.90;;;11.83;100.00;97918.16;4996723;28;20514;-81
2020/12/23 07:21:39;;;;;;;5.63;2.17;;;11.10;99.90;;;11.87;100.00;97919.41;4997656;28;20460;-81
2020/12/23 07:24:09;;;;;;;5.03;2.10;;;11.10;99.90;;;11.88;100.00;97921.00;4996730;28;20475;-81
2020/12/23 07:26:40;;;;;;;7.80;2.30;;;11.10;99.90;;;11.90;100.00;97919.81;4997749;28;20504;-81
2020/12/23 07:29:10;;;;;;;7.90;2.80;;;11.20;99.90;;;11.90;100.00;97919.00;4998939;28;21069;-81
2020/12/23 07:31:41;;;;;;;4.03;2.40;;;11.20;99.90;;;11.90;100.00;97924.22;4995502;28;20498;-81
2020/12/23 07:34:10;;;;;;;4.93;2.30;;;11.10;99.90;;;11.90;100.00;97914.56;4998250;28;20460;-81
2020/12/23 07:36:39;;;;;;;13.63;3.50;;;11.10;99.90;;;11.89;100.00;97914.75;4999111;28;20463;-81
2020/12/23 07:39:07;;;;;;;4.90;2.27;;;11.10;99.90;;;11.85;100.00;97911.72;4997021;28;20502;-81
2020/12/23 07:41:35;;;;;;;7.00;2.03;;;11.10;99.90;;;11.87;100.00;97914.16;4998007;28;20471;-81
2020/12/23 07:44:12;;;;;;;3.90;2.27;;;11.10;99.90;;;11.89;100.00;97914.75;4997217;28;20471;-81
2020/12/23 07:46:39;;;;;;;13.47;2.43;;;11.10;99.90;;;11.85;100.00;97911.72;4995366;28;20521;-81
2020/12/23 07:49:08;;;;;;;4.20;2.87;;;11.10;99.90;;;11.83;100.00;97915.56;4997193;28;21687;-81
2020/12/23 07:51:38;;;;;;;4.00;2.00;;;11.10;99.90;;;11.87;100.00;97914.94;4997338;28;20459;-81
2020/12/23 07:54:11;;;;;;;5.27;2.47;;;11.10;99.90;;;11.89;100.00;97906.88;4994490;28;20992;-81
2020/12/23 07:56:39;;;;;;;6.83;2.87;;;11.10;99.90;;;11.88;100.00;97905.25;4998556;28;20467;-84
2020/12/23 07:59:10;;;;;;;8.53;4.43;;;11.20;99.90;;;11.86;100.00;97908.09;4996606;28;21569;-81
2020/12/23 08:01:38;;;;;;;7.37;4.07;;;11.10;99.90;;;11.88;100.00;97907.88;4997215;28;20463;-80
2020/12/23 08:04:09;;;;;;;6.97;2.83;;;11.20;99.90;;;11.91;100.00;97908.28;4997403;28;20467;-82
2020/12/23 08:06:37;;;;;;;5.37;2.53;;;11.20;99.90;;;11.89;100.00;97912.13;4997190;28;20469;-81
2020/12/23 08:09:11;;;;;;;2.50;2.30;;;11.20;99.90;;;11.93;100.00;97902.88;4996021;28;20475;-81
2020/12/23 08:11:39;;;;;;;20.23;4.23;;;11.30;99.90;;;11.92;100.00;97902.06;4997471;28;20450;-81
2020/12/23 08:14:07;;;;;;;5.63;2.40;;;11.20;99.90;;;11.91;100.00;97910.09;4997358;28;20468;-81
2020/12/23 08:16:35;;;;;;;7.03;2.40;;;11.20;99.90;;;11.88;100.00;97900.03;4996325;28;21082;-81
2020/12/23 08:19:02;;;;;;;3.10;2.03;;;11.20;99.90;;;11.89;100.00;97902.47;4997346;28;20498;-81
2020/12/23 08:21:30;;;;;;;6.33;2.90;;;11.10;99.90;;;11.91;100.00;97910.09;4996980;28;20443;-81
2020/12/23 08:23:57;;;;;;;6.60;2.90;;;11.20;99.90;;;11.92;100.00;97909.09;4995829;28;20839;-81
2020/12/23 08:26:26;;;;;;;3.43;2.47;;;11.30;99.90;;;11.95;100.00;97906.09;4997327;28;21024;-81
2020/12/23 08:28:54;;;;;;;7.30;2.90;;;11.30;99.90;;;11.96;100.00;97903.28;4996136;28;20483;-82
2020/12/23 08:31:31;;;;;;;9.67;2.63;;;11.30;99.90;;;11.98;100.00;97897.81;4996449;28;20481;-81
2020/12/23 08:34:02;;;;;;;3.00;2.30;;;11.30;99.90;;;11.99;100.00;97897.63;4996898;28;20474;-81
2020/12/23 08:36:30;;;;;;;4.17;2.53;;;11.30;99.90;;;12.00;100.00;97901.06;4996756;28;20463;-82
2020/12/23 08:38:58;;;;;;;2.93;2.10;;;11.30;99.90;;;12.00;100.00;97887.97;4997658;28;21152;-81
2020/12/23 08:41:27;;;;;;;3.67;2.57;;;11.20;99.90;;;12.00;100.00;97887.97;4997370;28;20957;-81
2020/12/23 08:43:56;;;;;;;3.13;2.13;;;11.20;99.90;;;12.01;100.00;97892.19;4997867;28;20455;-81
2020/12/23 08:46:25;;;;;;;10.40;2.43;;;11.30;99.90;;;11.99;100.00;97886.34;4998609;28;20448;-81
2020/12/23 08:48:56;;;;;;;5.10;2.50;;;11.30;99.90;;;11.95;100.00;97885.13;4998065;28;20455;-81
2020/12/23 08:51:25;;;;;;;6.73;2.87;;;11.20;99.90;;;11.99;100.00;97886.34;4997546;28;20454;-81
2020/12/23 08:53:54;;;;;;;6.37;2.23;;;11.30;99.90;;;12.03;100.00;97887.56;4996866;28;20506;-81
2020/12/23 08:56:30;;;;;;;3.07;2.50;;;11.30;99.90;;;12.03;100.00;97888.38;4997831;28;20485;-82
2020/12/23 08:59:00;;;;;;;4.40;2.00;;;11.30;99.90;;;12.05;100.00;97880.28;4997352;28;20511;-81
2020/12/23 09:01:31;;;;;;;4.27;2.40;;;11.30;99.90;;;12.06;100.00;97879.28;4995785;28;20549;-81
2020/12/23 09:04:00;;;;;;;4.07;2.30;;;11.30;99.90;;;12.04;100.00;97876.09;4997649;28;20453;-81
2020/12/23 09:06:27;;;;;;;2.90;2.40;;;11.30;99.90;;;12.09;100.00;97873.66;4997296;28;20497;-81
2020/12/23 09:09:10;;;;;;;5.67;2.53;;;11.30;99.90;;;12.10;100.00;97867.41;4997572;28;20488;-81
2020/12/23 09:11:42;;;;;;;9.27;2.43;;;11.40;99.90;;;12.13;100.00;97855.72;4995960;28;20443;-81
2020/12/23 09:14:32;;;;;;;6.50;2.00;;;11.50;99.90;;;12.17;100.00;97862.16;4996055;28;20529;-81
2020/12/23 09:17:07;;;;;;;2.23;1.97;;;11.40;99.90;;;12.17;100.00;97870.84;4994228;28;20976;-81
2020/12/23 09:19:52;;;;;;;3.47;2.50;;;11.60;99.90;;;12.21;100.00;97864.19;4997134;28;21036;-80
2020/12/23 09:22:29;;;;;;;6.67;3.07;;;11.60;99.90;;;12.24;100.00;97865.59;4995552;28;20447;-81
2020/12/23 09:25:21;;;;;;;5.00;3.33;;;11.70;99.90;;;12.21;100.00;97864.19;4996733;28;20510;-81
2020/12/23 09:27:56;;;;;;;11.63;3.17;;;11.60;99.90;;;12.23;100.00;97867.41;4996295;28;20470;-81
2020/12/23 09:30:38;;;;;;;5.30;2.90;;;11.70;99.90;;;12.27;100.00;97868.63;4996123;28;20454;-81
2020/12/23 09:33:09;;;;;;;15.63;2.87;;;11.70;99.90;;;12.31;100.00;97859.34;4998624;28;20509;-81
2020/12/23 09:35:40;;;;;;;6.63;2.83;;;11.80;99.90;;;12.33;100.00;97859.13;4997814;28;20456;-81
2020/12/23 09:38:13;;;;;;;4.97;2.90;;;11.80;99.90;;;12.38;100.00;97854.09;4997313;28;20503;-81
2020/12/23 09:40:51;;;;;;;2.17;1.80;;;11.80;99.90;;;12.40;100.00;97839.75;4997221;28;21034;-81
2020/12/23 09:43:32;;;;;;;3.20;2.13;;;11.90;99.90;;;12.44;100.00;97846.22;4996578;28;20868;-81
2020/12/23 09:46:05;;;;;;;3.70;2.03;;;11.90;99.90;;;12.47;100.00;97837.94;4996815;28;20451;-81
2020/12/23 09:48:37;;;;;;;3.00;2.10;;;11.90;99.90;;;12.50;100.00;97845.41;5000861;28;20459;-81
2020/12/23 09:51:10;;;;;;;2.23;2.03;;;12.00;99.90;;;12.52;100.00;97846.03;5002606;28;20466;-81
2020/12/23 09:53:43;;;;;;;3.40;2.50;;;12.00;99.90;;;12.54;100.00;97830.88;5001210;28;20455;-81
2020/12/23 09:56:15;;;;;;;2.37;2.07;;;12.10;99.90;;;12.55;100.00;97822.00;5001637;28;20562;-81
2020/12/23 09:58:44;;;;;;;2.67;2.00;;;12.10;99.90;;;12.60;100.00;97831.84;5000001;28;20506;-82
2020/12/23 10:01:11;;;;;;;3.57;2.50;;;12.10;99.90;;;12.58;100.00;97824.22;4999940;28;20525;-82
2020/12/23 10:03:41;;;;;;;3.10;2.10;;;12.10;99.90;;;12.60;100.00;97840.53;4999878;28;20440;-82
2020/12/23 10:06:08;;;;;;;5.83;2.50;;;12.10;99.90;;;12.61;100.00;97834.28;4998926;28;20475;-81
2020/12/23 10:08:40;;;;;;;4.30;3.30;;;12.20;99.90;;;12.65;100.00;97823.38;4999719;28;20533;-81
2020/12/23 10:11:07;;;;;;;4.30;3.33;;;12.20;99.90;;;12.67;100.00;97821.38;5001092;28;20470;-81
2020/12/23 10:13:35;;;;;;;5.53;2.77;;;12.20;99.90;;;12.68;100.00;97822.97;5000860;28;20470;-81
2020/12/23 10:16:07;;;;;;;5.50;3.13;;;12.20;99.90;;;12.67;100.00;97805.63;5000088;28;20463;-82
2020/12/23 10:18:35;;;;;;;4.13;3.37;;;12.30;99.90;;;12.69;100.00;97814.09;5000164;28;20556;-82
2020/12/23 10:21:03;;;;;;;3.20;2.93;;;12.20;99.90;;;12.67;100.00;97805.63;4998143;28;20444;-82
2020/12/23 10:23:46;;;;;;;2.90;2.50;;;12.20;99.90;;;12.70;100.00;97806.03;5000070;28;20457;-82